Pagrindinis puslapis
METAR-TAF:

METAR-TAF

Oro uostai :

Luksoras, Egiptas

platuma: 25-40N, ilguma: 032-42E, Aukštis: 93 m

Dabartinis oras

Ataskaita buvo paskelbta 42 minutes, ne 10:00 UTC
Vėjas 2 kt iš Šiaurės Vakarų
Temperatūra 24°C
Drėgmė 31%
Slėgis 1014 hPa
Matomumas: 6000 m

METAR: HELX 271000Z 32002KT 6000 NSC 24/06 Q1014 NOSIG

Laikas: 12:42 (10:42 UTC)

Prognozė

Ataskaita buvo paskelbta 5 valandos ir 42 minutes, ne 05:00 UTC
Prognozė galioja nuo 27 metu 06 UTC su 28 metu 12 UTC
Vėjas 6 kt iš Pietų/Pietryčių
Matomumas: 6000 m
Laikinai
nuo 27 metu 06 UTC su 27 metu 11 UTC
Matomumas: 5000 m
migla
Laikinai
nuo 27 metu 06 UTC su 27 metu 09 UTC
Matomumas: 2000 m

TAF: HELX 270500Z 2706/2812 15006KT 6000 NSC TEMPO 2706/2711 5000 HZ TEMPO 2706/2709 2000

Orai ataskaitas ir orų prognozės (METAR, TAF).

turimą stotys yra geltonos ir raudonos taškus žemėlapyje.

Perkelti pele per norėdami pamatyti stoties vardą.

Tada spustelėkite, norėdami matyti oro stebėjimo ir prognozės.

Norėdami pakeisti žemėlapį: spustelėkite ant žalios mygtukų su juodo kryžiaus žemyn,; žalią mygtuką su brūkšneliu, jei norite nutolinti; arba žalių rodyklių gretimoms žemėlapius.


METAR-TAF: